sensor_id;sensor_type;location;lat;lon;timestamp;P1;durP1;ratioP1;P2;durP2;ratioP2
50350;SDS011;36250;48.740;22.174;2024-01-15T00:00:32;43.95;;;20.98;;
50350;SDS011;36250;48.740;22.174;2024-01-15T00:02:58;42.03;;;19.90;;
50350;SDS011;36250;48.740;22.174;2024-01-15T00:05:23;42.78;;;21.30;;
50350;SDS011;36250;48.740;22.174;2024-01-15T00:07:49;46.10;;;22.30;;
50350;SDS011;36250;48.740;22.174;2024-01-15T00:10:14;39.05;;;19.08;;
50350;SDS011;36250;48.740;22.174;2024-01-15T00:12:40;40.55;;;19.08;;
50350;SDS011;36250;48.740;22.174;2024-01-15T00:15:05;41.40;;;21.85;;
50350;SDS011;36250;48.740;22.174;2024-01-15T00:17:31;41.63;;;20.08;;
50350;SDS011;36250;48.740;22.174;2024-01-15T00:19:56;36.88;;;18.88;;
50350;SDS011;36250;48.740;22.174;2024-01-15T00:22:21;41.33;;;19.15;;
50350;SDS011;36250;48.740;22.174;2024-01-15T00:24:48;42.67;;;20.10;;
50350;SDS011;36250;48.740;22.174;2024-01-15T00:27:14;39.28;;;19.13;;
50350;SDS011;36250;48.740;22.174;2024-01-15T00:29:39;38.25;;;20.70;;
50350;SDS011;36250;48.740;22.174;2024-01-15T00:32:05;37.97;;;18.85;;
50350;SDS011;36250;48.740;22.174;2024-01-15T00:34:30;44.47;;;20.30;;
50350;SDS011;36250;48.740;22.174;2024-01-15T00:36:55;41.03;;;20.58;;
50350;SDS011;36250;48.740;22.174;2024-01-15T00:39:21;42.35;;;19.25;;
50350;SDS011;36250;48.740;22.174;2024-01-15T00:41:46;39.20;;;19.75;;
50350;SDS011;36250;48.740;22.174;2024-01-15T00:44:12;41.40;;;19.42;;
50350;SDS011;36250;48.740;22.174;2024-01-15T00:46:43;39.72;;;21.40;;
50350;SDS011;36250;48.740;22.174;2024-01-15T00:51:35;40.78;;;19.70;;
50350;SDS011;36250;48.740;22.174;2024-01-15T00:54:00;41.45;;;20.20;;
50350;SDS011;36250;48.740;22.174;2024-01-15T00:56:25;39.97;;;20.35;;
50350;SDS011;36250;48.740;22.174;2024-01-15T00:58:51;41.13;;;20.67;;
50350;SDS011;36250;48.740;22.174;2024-01-15T01:01:16;38.92;;;21.40;;
50350;SDS011;36250;48.740;22.174;2024-01-15T01:03:41;42.45;;;19.42;;
50350;SDS011;36250;48.740;22.174;2024-01-15T01:06:07;39.10;;;20.30;;
50350;SDS011;36250;48.740;22.174;2024-01-15T01:08:32;41.20;;;20.98;;
50350;SDS011;36250;48.740;22.174;2024-01-15T01:10:57;43.60;;;21.38;;
50350;SDS011;36250;48.740;22.174;2024-01-15T01:13:23;39.97;;;20.50;;
50350;SDS011;36250;48.740;22.174;2024-01-15T01:15:48;37.85;;;19.73;;
50350;SDS011;36250;48.740;22.174;2024-01-15T01:18:13;47.65;;;20.63;;
50350;SDS011;36250;48.740;22.174;2024-01-15T01:20:39;42.35;;;20.50;;
50350;SDS011;36250;48.740;22.174;2024-01-15T01:23:04;43.67;;;21.40;;
50350;SDS011;36250;48.740;22.174;2024-01-15T01:25:30;41.13;;;19.83;;
50350;SDS011;36250;48.740;22.174;2024-01-15T01:27:55;41.90;;;21.23;;
50350;SDS011;36250;48.740;22.174;2024-01-15T01:30:20;40.28;;;20.15;;
50350;SDS011;36250;48.740;22.174;2024-01-15T01:32:46;44.92;;;20.60;;
50350;SDS011;36250;48.740;22.174;2024-01-15T01:35:12;38.38;;;20.80;;
50350;SDS011;36250;48.740;22.174;2024-01-15T01:37:37;37.00;;;20.13;;
50350;SDS011;36250;48.740;22.174;2024-01-15T01:40:03;43.40;;;20.65;;
50350;SDS011;36250;48.740;22.174;2024-01-15T01:42:28;41.17;;;21.67;;
50350;SDS011;36250;48.740;22.174;2024-01-15T01:44:54;38.80;;;20.00;;
50350;SDS011;36250;48.740;22.174;2024-01-15T01:47:19;39.72;;;20.08;;
50350;SDS011;36250;48.740;22.174;2024-01-15T01:49:45;39.47;;;20.83;;
50350;SDS011;36250;48.740;22.174;2024-01-15T01:52:11;41.92;;;21.13;;
50350;SDS011;36250;48.740;22.174;2024-01-15T01:54:37;45.05;;;21.33;;
50350;SDS011;36250;48.740;22.174;2024-01-15T01:57:05;44.03;;;21.48;;
50350;SDS011;36250;48.740;22.174;2024-01-15T01:59:31;42.92;;;23.05;;
50350;SDS011;36250;48.740;22.174;2024-01-15T02:01:58;46.80;;;22.58;;
50350;SDS011;36250;48.740;22.174;2024-01-15T02:04:25;43.60;;;22.15;;
50350;SDS011;36250;48.740;22.174;2024-01-15T02:06:51;44.67;;;21.83;;
50350;SDS011;36250;48.740;22.174;2024-01-15T02:09:17;43.38;;;22.50;;
50350;SDS011;36250;48.740;22.174;2024-01-15T02:11:43;47.20;;;22.20;;
50350;SDS011;36250;48.740;22.174;2024-01-15T02:14:09;39.33;;;21.60;;
50350;SDS011;36250;48.740;22.174;2024-01-15T02:16:34;45.22;;;23.58;;
50350;SDS011;36250;48.740;22.174;2024-01-15T02:18:59;46.13;;;23.50;;
50350;SDS011;36250;48.740;22.174;2024-01-15T02:21:25;40.85;;;22.17;;
50350;SDS011;36250;48.740;22.174;2024-01-15T02:23:53;45.63;;;23.92;;
50350;SDS011;36250;48.740;22.174;2024-01-15T02:26:19;46.90;;;26.02;;
50350;SDS011;36250;48.740;22.174;2024-01-15T02:28:44;47.10;;;25.17;;
50350;SDS011;36250;48.740;22.174;2024-01-15T02:31:09;51.30;;;27.15;;
50350;SDS011;36250;48.740;22.174;2024-01-15T02:33:35;49.67;;;27.30;;
50350;SDS011;36250;48.740;22.174;2024-01-15T02:36:00;55.53;;;28.98;;
50350;SDS011;36250;48.740;22.174;2024-01-15T02:38:25;52.85;;;28.42;;
50350;SDS011;36250;48.740;22.174;2024-01-15T02:40:51;56.00;;;28.67;;
50350;SDS011;36250;48.740;22.174;2024-01-15T02:43:16;58.58;;;27.88;;
50350;SDS011;36250;48.740;22.174;2024-01-15T02:45:44;60.95;;;30.30;;
50350;SDS011;36250;48.740;22.174;2024-01-15T02:48:09;58.83;;;29.45;;
50350;SDS011;36250;48.740;22.174;2024-01-15T02:50:34;62.60;;;30.63;;
50350;SDS011;36250;48.740;22.174;2024-01-15T02:53:00;57.65;;;29.15;;
50350;SDS011;36250;48.740;22.174;2024-01-15T02:55:25;62.88;;;31.23;;
50350;SDS011;36250;48.740;22.174;2024-01-15T02:57:50;55.55;;;29.60;;
50350;SDS011;36250;48.740;22.174;2024-01-15T03:00:16;60.20;;;31.23;;
50350;SDS011;36250;48.740;22.174;2024-01-15T03:02:45;65.18;;;32.83;;
50350;SDS011;36250;48.740;22.174;2024-01-15T03:05:10;69.80;;;35.47;;
50350;SDS011;36250;48.740;22.174;2024-01-15T03:07:36;67.28;;;33.60;;
50350;SDS011;36250;48.740;22.174;2024-01-15T03:10:01;68.13;;;36.53;;
50350;SDS011;36250;48.740;22.174;2024-01-15T03:12:26;65.93;;;34.60;;
50350;SDS011;36250;48.740;22.174;2024-01-15T03:14:52;70.45;;;36.05;;
50350;SDS011;36250;48.740;22.174;2024-01-15T03:17:17;68.38;;;35.40;;
50350;SDS011;36250;48.740;22.174;2024-01-15T03:19:43;76.32;;;38.85;;
50350;SDS011;36250;48.740;22.174;2024-01-15T03:22:08;71.25;;;36.58;;
50350;SDS011;36250;48.740;22.174;2024-01-15T03:24:34;71.85;;;36.58;;
50350;SDS011;36250;48.740;22.174;2024-01-15T03:27:00;76.18;;;39.70;;
50350;SDS011;36250;48.740;22.174;2024-01-15T03:29:25;74.13;;;39.53;;
50350;SDS011;36250;48.740;22.174;2024-01-15T03:31:51;71.07;;;37.42;;
50350;SDS011;36250;48.740;22.174;2024-01-15T03:34:17;70.25;;;36.17;;
50350;SDS011;36250;48.740;22.174;2024-01-15T03:36:42;72.85;;;37.67;;
50350;SDS011;36250;48.740;22.174;2024-01-15T03:39:07;72.00;;;38.03;;
50350;SDS011;36250;48.740;22.174;2024-01-15T03:41:33;71.30;;;38.28;;
50350;SDS011;36250;48.740;22.174;2024-01-15T03:43:58;71.93;;;35.95;;
50350;SDS011;36250;48.740;22.174;2024-01-15T03:46:24;73.22;;;36.92;;
50350;SDS011;36250;48.740;22.174;2024-01-15T03:48:49;63.03;;;35.47;;
50350;SDS011;36250;48.740;22.174;2024-01-15T03:51:16;76.22;;;39.30;;
50350;SDS011;36250;48.740;22.174;2024-01-15T03:53:42;74.85;;;39.97;;
50350;SDS011;36250;48.740;22.174;2024-01-15T03:56:07;70.07;;;37.05;;
50350;SDS011;36250;48.740;22.174;2024-01-15T03:58:33;81.55;;;38.33;;
50350;SDS011;36250;48.740;22.174;2024-01-15T04:00:58;73.35;;;38.58;;
50350;SDS011;36250;48.740;22.174;2024-01-15T04:03:23;77.82;;;38.58;;
50350;SDS011;36250;48.740;22.174;2024-01-15T04:05:49;70.50;;;38.25;;
50350;SDS011;36250;48.740;22.174;2024-01-15T04:08:14;68.07;;;38.00;;
50350;SDS011;36250;48.740;22.174;2024-01-15T04:10:39;79.28;;;38.80;;
50350;SDS011;36250;48.740;22.174;2024-01-15T04:13:05;68.72;;;38.22;;
50350;SDS011;36250;48.740;22.174;2024-01-15T04:15:30;72.22;;;37.83;;
50350;SDS011;36250;48.740;22.174;2024-01-15T04:17:55;74.93;;;38.20;;
50350;SDS011;36250;48.740;22.174;2024-01-15T04:20:21;72.68;;;39.15;;
50350;SDS011;36250;48.740;22.174;2024-01-15T04:22:46;72.20;;;39.65;;
50350;SDS011;36250;48.740;22.174;2024-01-15T04:25:12;75.50;;;38.65;;
50350;SDS011;36250;48.740;22.174;2024-01-15T04:27:37;70.32;;;38.03;;
50350;SDS011;36250;48.740;22.174;2024-01-15T04:30:02;78.35;;;38.30;;
50350;SDS011;36250;48.740;22.174;2024-01-15T04:32:28;70.10;;;38.67;;
50350;SDS011;36250;48.740;22.174;2024-01-15T04:34:55;73.47;;;37.58;;
50350;SDS011;36250;48.740;22.174;2024-01-15T04:37:20;71.72;;;37.63;;
50350;SDS011;36250;48.740;22.174;2024-01-15T04:39:45;66.18;;;36.65;;
50350;SDS011;36250;48.740;22.174;2024-01-15T04:42:11;78.85;;;39.13;;
50350;SDS011;36250;48.740;22.174;2024-01-15T04:44:36;72.47;;;37.50;;
50350;SDS011;36250;48.740;22.174;2024-01-15T04:47:02;70.93;;;35.72;;
50350;SDS011;36250;48.740;22.174;2024-01-15T04:49:27;73.35;;;38.42;;
50350;SDS011;36250;48.740;22.174;2024-01-15T04:51:54;74.18;;;40.58;;
50350;SDS011;36250;48.740;22.174;2024-01-15T04:54:19;74.13;;;40.50;;
50350;SDS011;36250;48.740;22.174;2024-01-15T04:56:45;69.85;;;37.92;;
50350;SDS011;36250;48.740;22.174;2024-01-15T04:59:11;79.50;;;39.22;;
50350;SDS011;36250;48.740;22.174;2024-01-15T05:01:36;81.53;;;40.80;;
50350;SDS011;36250;48.740;22.174;2024-01-15T05:04:02;80.28;;;41.65;;
50350;SDS011;36250;48.740;22.174;2024-01-15T05:06:27;84.25;;;42.95;;
50350;SDS011;36250;48.740;22.174;2024-01-15T05:08:52;79.35;;;40.67;;
50350;SDS011;36250;48.740;22.174;2024-01-15T05:11:18;88.25;;;42.10;;
50350;SDS011;36250;48.740;22.174;2024-01-15T05:13:43;68.80;;;37.60;;
50350;SDS011;36250;48.740;22.174;2024-01-15T05:16:08;70.72;;;36.00;;
50350;SDS011;36250;48.740;22.174;2024-01-15T05:18:34;74.80;;;38.70;;
50350;SDS011;36250;48.740;22.174;2024-01-15T05:20:59;108.15;;;47.95;;
50350;SDS011;36250;48.740;22.174;2024-01-15T05:23:24;112.85;;;51.72;;
50350;SDS011;36250;48.740;22.174;2024-01-15T05:25:50;125.78;;;64.78;;
50350;SDS011;36250;48.740;22.174;2024-01-15T05:28:15;84.93;;;45.08;;
50350;SDS011;36250;48.740;22.174;2024-01-15T05:30:41;82.55;;;43.50;;
50350;SDS011;36250;48.740;22.174;2024-01-15T05:33:06;78.20;;;40.08;;
50350;SDS011;36250;48.740;22.174;2024-01-15T05:35:32;69.65;;;38.53;;
50350;SDS011;36250;48.740;22.174;2024-01-15T05:37:58;74.50;;;40.47;;
50350;SDS011;36250;48.740;22.174;2024-01-15T05:40:23;67.32;;;37.13;;
50350;SDS011;36250;48.740;22.174;2024-01-15T05:42:49;74.25;;;38.65;;
50350;SDS011;36250;48.740;22.174;2024-01-15T05:45:14;65.97;;;36.42;;
50350;SDS011;36250;48.740;22.174;2024-01-15T05:47:40;72.10;;;37.60;;
50350;SDS011;36250;48.740;22.174;2024-01-15T05:50:05;75.50;;;40.75;;
50350;SDS011;36250;48.740;22.174;2024-01-15T05:52:31;89.13;;;47.63;;
50350;SDS011;36250;48.740;22.174;2024-01-15T05:54:57;88.53;;;44.35;;
50350;SDS011;36250;48.740;22.174;2024-01-15T05:57:22;77.43;;;42.05;;
50350;SDS011;36250;48.740;22.174;2024-01-15T05:59:48;71.05;;;38.38;;
50350;SDS011;36250;48.740;22.174;2024-01-15T06:02:13;74.68;;;39.78;;
50350;SDS011;36250;48.740;22.174;2024-01-15T06:04:39;67.38;;;40.13;;
50350;SDS011;36250;48.740;22.174;2024-01-15T06:07:04;69.32;;;37.92;;
50350;SDS011;36250;48.740;22.174;2024-01-15T06:09:30;64.18;;;36.28;;
50350;SDS011;36250;48.740;22.174;2024-01-15T06:11:56;72.68;;;38.30;;
50350;SDS011;36250;48.740;22.174;2024-01-15T06:14:22;67.68;;;38.50;;
50350;SDS011;36250;48.740;22.174;2024-01-15T06:16:47;76.60;;;38.85;;
50350;SDS011;36250;48.740;22.174;2024-01-15T06:19:12;69.20;;;35.72;;
50350;SDS011;36250;48.740;22.174;2024-01-15T06:21:38;71.88;;;38.05;;
50350;SDS011;36250;48.740;22.174;2024-01-15T06:24:03;68.90;;;36.08;;
50350;SDS011;36250;48.740;22.174;2024-01-15T06:26:28;67.05;;;37.22;;
50350;SDS011;36250;48.740;22.174;2024-01-15T06:28:54;68.72;;;38.25;;
50350;SDS011;36250;48.740;22.174;2024-01-15T06:31:20;74.30;;;39.40;;
50350;SDS011;36250;48.740;22.174;2024-01-15T06:33:45;71.47;;;39.83;;
50350;SDS011;36250;48.740;22.174;2024-01-15T06:36:13;73.63;;;41.40;;
50350;SDS011;36250;48.740;22.174;2024-01-15T06:38:38;67.50;;;35.63;;
50350;SDS011;36250;48.740;22.174;2024-01-15T06:41:04;58.85;;;33.03;;
50350;SDS011;36250;48.740;22.174;2024-01-15T06:43:29;62.38;;;34.13;;
50350;SDS011;36250;48.740;22.174;2024-01-15T06:45:54;63.42;;;31.95;;
50350;SDS011;36250;48.740;22.174;2024-01-15T06:48:20;59.92;;;33.28;;
50350;SDS011;36250;48.740;22.174;2024-01-15T06:50:45;63.67;;;34.58;;
50350;SDS011;36250;48.740;22.174;2024-01-15T06:53:11;67.07;;;35.05;;
50350;SDS011;36250;48.740;22.174;2024-01-15T06:55:37;69.03;;;38.70;;
50350;SDS011;36250;48.740;22.174;2024-01-15T06:58:03;72.07;;;34.85;;
50350;SDS011;36250;48.740;22.174;2024-01-15T07:00:28;64.03;;;35.75;;
50350;SDS011;36250;48.740;22.174;2024-01-15T07:02:54;69.22;;;34.88;;
50350;SDS011;36250;48.740;22.174;2024-01-15T07:05:23;72.93;;;35.22;;
50350;SDS011;36250;48.740;22.174;2024-01-15T07:07:49;69.72;;;35.88;;
50350;SDS011;36250;48.740;22.174;2024-01-15T07:10:14;68.20;;;34.72;;
50350;SDS011;36250;48.740;22.174;2024-01-15T07:12:41;72.07;;;36.13;;
50350;SDS011;36250;48.740;22.174;2024-01-15T07:15:07;66.40;;;35.47;;
50350;SDS011;36250;48.740;22.174;2024-01-15T07:17:33;63.15;;;33.95;;
50350;SDS011;36250;48.740;22.174;2024-01-15T07:19:59;61.33;;;33.58;;
50350;SDS011;36250;48.740;22.174;2024-01-15T07:22:24;69.30;;;33.33;;
50350;SDS011;36250;48.740;22.174;2024-01-15T07:24:49;58.33;;;31.45;;
50350;SDS011;36250;48.740;22.174;2024-01-15T07:27:15;57.28;;;30.90;;
50350;SDS011;36250;48.740;22.174;2024-01-15T07:29:41;57.80;;;31.08;;
50350;SDS011;36250;48.740;22.174;2024-01-15T07:32:07;64.22;;;33.42;;
50350;SDS011;36250;48.740;22.174;2024-01-15T07:34:33;69.75;;;37.25;;
50350;SDS011;36250;48.740;22.174;2024-01-15T07:36:58;74.57;;;40.35;;
50350;SDS011;36250;48.740;22.174;2024-01-15T07:39:23;82.88;;;41.00;;
50350;SDS011;36250;48.740;22.174;2024-01-15T07:41:50;79.32;;;37.75;;
50350;SDS011;36250;48.740;22.174;2024-01-15T07:44:15;65.70;;;35.17;;
50350;SDS011;36250;48.740;22.174;2024-01-15T07:46:44;70.07;;;37.58;;
50350;SDS011;36250;48.740;22.174;2024-01-15T07:49:10;82.60;;;42.33;;
50350;SDS011;36250;48.740;22.174;2024-01-15T07:51:35;74.13;;;40.92;;
50350;SDS011;36250;48.740;22.174;2024-01-15T07:54:03;71.68;;;37.88;;
50350;SDS011;36250;48.740;22.174;2024-01-15T07:56:28;73.93;;;40.58;;
50350;SDS011;36250;48.740;22.174;2024-01-15T07:58:54;74.63;;;38.58;;
50350;SDS011;36250;48.740;22.174;2024-01-15T08:01:19;64.18;;;33.58;;
50350;SDS011;36250;48.740;22.174;2024-01-15T08:03:44;68.03;;;34.78;;
50350;SDS011;36250;48.740;22.174;2024-01-15T08:06:10;55.60;;;30.77;;
50350;SDS011;36250;48.740;22.174;2024-01-15T08:08:35;62.90;;;33.13;;
50350;SDS011;36250;48.740;22.174;2024-01-15T08:11:01;63.40;;;33.03;;
50350;SDS011;36250;48.740;22.174;2024-01-15T08:13:27;57.40;;;31.00;;
50350;SDS011;36250;48.740;22.174;2024-01-15T08:15:52;58.78;;;32.70;;
50350;SDS011;36250;48.740;22.174;2024-01-15T08:18:18;66.40;;;35.10;;
50350;SDS011;36250;48.740;22.174;2024-01-15T08:20:43;56.95;;;31.63;;
50350;SDS011;36250;48.740;22.174;2024-01-15T08:23:09;58.10;;;30.55;;
50350;SDS011;36250;48.740;22.174;2024-01-15T08:25:34;65.93;;;35.08;;
50350;SDS011;36250;48.740;22.174;2024-01-15T08:28:00;64.88;;;37.03;;
50350;SDS011;36250;48.740;22.174;2024-01-15T08:30:25;65.75;;;36.08;;
50350;SDS011;36250;48.740;22.174;2024-01-15T08:32:53;51.17;;;30.10;;
50350;SDS011;36250;48.740;22.174;2024-01-15T08:35:19;52.67;;;27.65;;
50350;SDS011;36250;48.740;22.174;2024-01-15T08:37:47;55.90;;;31.08;;
50350;SDS011;36250;48.740;22.174;2024-01-15T08:40:16;58.70;;;31.63;;
50350;SDS011;36250;48.740;22.174;2024-01-15T08:42:42;58.92;;;31.77;;
50350;SDS011;36250;48.740;22.174;2024-01-15T08:45:08;53.60;;;30.02;;
50350;SDS011;36250;48.740;22.174;2024-01-15T08:47:34;55.50;;;29.88;;
50350;SDS011;36250;48.740;22.174;2024-01-15T08:49:59;50.60;;;28.75;;
50350;SDS011;36250;48.740;22.174;2024-01-15T08:52:25;52.78;;;28.45;;
50350;SDS011;36250;48.740;22.174;2024-01-15T08:54:50;51.22;;;29.10;;
50350;SDS011;36250;48.740;22.174;2024-01-15T08:57:15;52.85;;;29.13;;
50350;SDS011;36250;48.740;22.174;2024-01-15T08:59:41;58.55;;;31.60;;
50350;SDS011;36250;48.740;22.174;2024-01-15T09:02:07;49.85;;;28.77;;
50350;SDS011;36250;48.740;22.174;2024-01-15T09:04:32;54.42;;;29.40;;
50350;SDS011;36250;48.740;22.174;2024-01-15T09:06:58;58.22;;;29.83;;
50350;SDS011;36250;48.740;22.174;2024-01-15T09:09:23;52.63;;;29.23;;
50350;SDS011;36250;48.740;22.174;2024-01-15T09:11:49;52.70;;;30.90;;
50350;SDS011;36250;48.740;22.174;2024-01-15T09:14:15;49.67;;;29.23;;
50350;SDS011;36250;48.740;22.174;2024-01-15T09:16:40;52.85;;;30.67;;
50350;SDS011;36250;48.740;22.174;2024-01-15T09:19:05;49.45;;;27.60;;
50350;SDS011;36250;48.740;22.174;2024-01-15T09:21:31;55.63;;;32.08;;
50350;SDS011;36250;48.740;22.174;2024-01-15T09:23:56;50.72;;;29.80;;
50350;SDS011;36250;48.740;22.174;2024-01-15T09:26:22;59.08;;;32.88;;
50350;SDS011;36250;48.740;22.174;2024-01-15T09:28:47;55.83;;;31.17;;
50350;SDS011;36250;48.740;22.174;2024-01-15T09:31:12;62.90;;;33.38;;
50350;SDS011;36250;48.740;22.174;2024-01-15T09:33:38;59.53;;;33.60;;
50350;SDS011;36250;48.740;22.174;2024-01-15T09:36:03;59.20;;;33.10;;
50350;SDS011;36250;48.740;22.174;2024-01-15T09:38:29;64.00;;;35.33;;
50350;SDS011;36250;48.740;22.174;2024-01-15T09:40:56;59.85;;;32.63;;
50350;SDS011;36250;48.740;22.174;2024-01-15T09:43:22;55.13;;;31.77;;
50350;SDS011;36250;48.740;22.174;2024-01-15T09:45:47;60.00;;;31.67;;
50350;SDS011;36250;48.740;22.174;2024-01-15T09:48:15;54.92;;;31.67;;
50350;SDS011;36250;48.740;22.174;2024-01-15T09:50:41;61.20;;;32.03;;
50350;SDS011;36250;48.740;22.174;2024-01-15T09:53:07;58.83;;;33.38;;
50350;SDS011;36250;48.740;22.174;2024-01-15T09:55:34;61.70;;;33.75;;
50350;SDS011;36250;48.740;22.174;2024-01-15T09:58:02;68.65;;;34.17;;
50350;SDS011;36250;48.740;22.174;2024-01-15T10:00:29;54.10;;;31.83;;
50350;SDS011;36250;48.740;22.174;2024-01-15T10:02:56;59.80;;;33.30;;
50350;SDS011;36250;48.740;22.174;2024-01-15T10:05:21;57.85;;;34.30;;
50350;SDS011;36250;48.740;22.174;2024-01-15T10:07:47;57.33;;;32.33;;
50350;SDS011;36250;48.740;22.174;2024-01-15T10:10:15;62.33;;;33.65;;
50350;SDS011;36250;48.740;22.174;2024-01-15T10:12:40;61.67;;;34.70;;
50350;SDS011;36250;48.740;22.174;2024-01-15T10:15:09;67.63;;;35.47;;
50350;SDS011;36250;48.740;22.174;2024-01-15T10:17:36;66.15;;;34.95;;
50350;SDS011;36250;48.740;22.174;2024-01-15T10:20:11;68.78;;;36.92;;
50350;SDS011;36250;48.740;22.174;2024-01-15T10:22:43;65.28;;;37.47;;
50350;SDS011;36250;48.740;22.174;2024-01-15T10:25:12;67.93;;;37.47;;
50350;SDS011;36250;48.740;22.174;2024-01-15T10:27:38;69.57;;;37.72;;
50350;SDS011;36250;48.740;22.174;2024-01-15T10:30:05;61.83;;;36.33;;
50350;SDS011;36250;48.740;22.174;2024-01-15T10:32:31;71.22;;;37.95;;
50350;SDS011;36250;48.740;22.174;2024-01-15T10:34:56;68.28;;;37.55;;
50350;SDS011;36250;48.740;22.174;2024-01-15T10:37:23;66.50;;;37.63;;
50350;SDS011;36250;48.740;22.174;2024-01-15T10:39:49;72.88;;;40.13;;
50350;SDS011;36250;48.740;22.174;2024-01-15T10:42:14;72.30;;;38.15;;
50350;SDS011;36250;48.740;22.174;2024-01-15T10:44:41;66.60;;;37.88;;
50350;SDS011;36250;48.740;22.174;2024-01-15T10:47:08;74.97;;;41.95;;
50350;SDS011;36250;48.740;22.174;2024-01-15T10:49:33;73.97;;;41.88;;
50350;SDS011;36250;48.740;22.174;2024-01-15T10:52:00;73.47;;;41.17;;
50350;SDS011;36250;48.740;22.174;2024-01-15T10:54:26;75.13;;;41.10;;
50350;SDS011;36250;48.740;22.174;2024-01-15T10:56:52;74.35;;;39.55;;
50350;SDS011;36250;48.740;22.174;2024-01-15T10:59:19;75.25;;;39.17;;
50350;SDS011;36250;48.740;22.174;2024-01-15T11:01:47;70.72;;;41.42;;
50350;SDS011;36250;48.740;22.174;2024-01-15T11:04:13;81.53;;;47.88;;
50350;SDS011;36250;48.740;22.174;2024-01-15T11:06:41;78.45;;;45.60;;
50350;SDS011;36250;48.740;22.174;2024-01-15T11:09:08;82.13;;;44.40;;
50350;SDS011;36250;48.740;22.174;2024-01-15T11:11:40;74.20;;;41.70;;
50350;SDS011;36250;48.740;22.174;2024-01-15T11:14:10;67.50;;;39.40;;
50350;SDS011;36250;48.740;22.174;2024-01-15T11:16:54;71.30;;;39.53;;
50350;SDS011;36250;48.740;22.174;2024-01-15T11:19:27;69.45;;;38.42;;
50350;SDS011;36250;48.740;22.174;2024-01-15T11:22:01;66.28;;;37.95;;
50350;SDS011;36250;48.740;22.174;2024-01-15T11:24:37;69.97;;;38.75;;
50350;SDS011;36250;48.740;22.174;2024-01-15T11:27:02;84.00;;;44.17;;
50350;SDS011;36250;48.740;22.174;2024-01-15T11:29:29;68.70;;;39.35;;
50350;SDS011;36250;48.740;22.174;2024-01-15T11:37:27;71.60;;;39.95;;
50350;SDS011;36250;48.740;22.174;2024-01-15T11:40:11;76.95;;;42.95;;
50350;SDS011;36250;48.740;22.174;2024-01-15T11:42:37;72.88;;;39.78;;
50350;SDS011;36250;48.740;22.174;2024-01-15T11:45:03;74.10;;;40.72;;
50350;SDS011;36250;48.740;22.174;2024-01-15T11:47:40;76.80;;;42.95;;
50350;SDS011;36250;48.740;22.174;2024-01-15T11:50:28;75.55;;;40.65;;
50350;SDS011;36250;48.740;22.174;2024-01-15T11:53:02;79.07;;;43.70;;
50350;SDS011;36250;48.740;22.174;2024-01-15T11:55:34;82.32;;;45.20;;
50350;SDS011;36250;48.740;22.174;2024-01-15T11:58:07;79.68;;;44.40;;
50350;SDS011;36250;48.740;22.174;2024-01-15T12:00:34;86.72;;;47.83;;
50350;SDS011;36250;48.740;22.174;2024-01-15T12:03:05;80.55;;;44.58;;
50350;SDS011;36250;48.740;22.174;2024-01-15T12:05:30;88.57;;;45.63;;
50350;SDS011;36250;48.740;22.174;2024-01-15T12:07:56;81.88;;;43.67;;
50350;SDS011;36250;48.740;22.174;2024-01-15T12:10:22;80.45;;;44.35;;
50350;SDS011;36250;48.740;22.174;2024-01-15T12:15:25;80.47;;;40.13;;
50350;SDS011;36250;48.740;22.174;2024-01-15T12:17:51;79.32;;;43.25;;
50350;SDS011;36250;48.740;22.174;2024-01-15T12:20:17;83.82;;;42.25;;
50350;SDS011;36250;48.740;22.174;2024-01-15T12:22:43;80.97;;;44.58;;
50350;SDS011;36250;48.740;22.174;2024-01-15T12:25:09;88.40;;;48.75;;
50350;SDS011;36250;48.740;22.174;2024-01-15T12:27:35;84.90;;;46.60;;
50350;SDS011;36250;48.740;22.174;2024-01-15T12:30:00;82.38;;;45.80;;
50350;SDS011;36250;48.740;22.174;2024-01-15T12:32:26;87.30;;;47.05;;
50350;SDS011;36250;48.740;22.174;2024-01-15T12:34:51;80.38;;;42.88;;
50350;SDS011;36250;48.740;22.174;2024-01-15T12:37:20;75.88;;;42.05;;
50350;SDS011;36250;48.740;22.174;2024-01-15T12:39:46;77.13;;;41.38;;
50350;SDS011;36250;48.740;22.174;2024-01-15T12:42:13;76.90;;;41.08;;
50350;SDS011;36250;48.740;22.174;2024-01-15T12:44:39;78.30;;;41.35;;
50350;SDS011;36250;48.740;22.174;2024-01-15T12:47:05;78.32;;;43.03;;
50350;SDS011;36250;48.740;22.174;2024-01-15T12:49:32;90.35;;;49.47;;
50350;SDS011;36250;48.740;22.174;2024-01-15T12:51:57;92.22;;;47.80;;
50350;SDS011;36250;48.740;22.174;2024-01-15T12:54:24;77.57;;;44.05;;
50350;SDS011;36250;48.740;22.174;2024-01-15T12:56:50;98.55;;;53.38;;
50350;SDS011;36250;48.740;22.174;2024-01-15T12:59:16;88.00;;;48.65;;
50350;SDS011;36250;48.740;22.174;2024-01-15T13:01:42;94.80;;;50.05;;
50350;SDS011;36250;48.740;22.174;2024-01-15T13:04:08;84.15;;;48.33;;
50350;SDS011;36250;48.740;22.174;2024-01-15T13:06:34;91.22;;;50.75;;
50350;SDS011;36250;48.740;22.174;2024-01-15T13:08:59;91.82;;;50.83;;
50350;SDS011;36250;48.740;22.174;2024-01-15T13:11:25;91.28;;;46.30;;
50350;SDS011;36250;48.740;22.174;2024-01-15T13:13:50;68.70;;;38.75;;
50350;SDS011;36250;48.740;22.174;2024-01-15T13:16:16;68.32;;;40.70;;
50350;SDS011;36250;48.740;22.174;2024-01-15T13:18:41;72.13;;;41.53;;
50350;SDS011;36250;48.740;22.174;2024-01-15T13:21:06;84.03;;;45.45;;
50350;SDS011;36250;48.740;22.174;2024-01-15T13:23:32;91.95;;;49.05;;
50350;SDS011;36250;48.740;22.174;2024-01-15T13:25:57;85.25;;;46.40;;
50350;SDS011;36250;48.740;22.174;2024-01-15T13:28:23;81.07;;;44.05;;
50350;SDS011;36250;48.740;22.174;2024-01-15T13:30:48;83.70;;;45.22;;
50350;SDS011;36250;48.740;22.174;2024-01-15T13:33:14;90.80;;;50.22;;
50350;SDS011;36250;48.740;22.174;2024-01-15T13:35:39;90.20;;;47.10;;
50350;SDS011;36250;48.740;22.174;2024-01-15T13:38:04;96.03;;;52.67;;
50350;SDS011;36250;48.740;22.174;2024-01-15T13:40:30;82.63;;;45.90;;
50350;SDS011;36250;48.740;22.174;2024-01-15T13:42:55;75.22;;;43.17;;
50350;SDS011;36250;48.740;22.174;2024-01-15T13:45:20;74.43;;;41.92;;
50350;SDS011;36250;48.740;22.174;2024-01-15T13:47:46;83.97;;;44.55;;
50350;SDS011;36250;48.740;22.174;2024-01-15T13:50:11;84.85;;;44.58;;
50350;SDS011;36250;48.740;22.174;2024-01-15T13:52:37;72.50;;;42.47;;
50350;SDS011;36250;48.740;22.174;2024-01-15T13:55:03;77.70;;;43.20;;
50350;SDS011;36250;48.740;22.174;2024-01-15T13:57:28;76.35;;;42.10;;
50350;SDS011;36250;48.740;22.174;2024-01-15T13:59:53;91.93;;;47.38;;
50350;SDS011;36250;48.740;22.174;2024-01-15T14:02:20;124.05;;;67.55;;
50350;SDS011;36250;48.740;22.174;2024-01-15T14:04:45;159.73;;;83.18;;
50350;SDS011;36250;48.740;22.174;2024-01-15T14:07:11;128.75;;;70.20;;
50350;SDS011;36250;48.740;22.174;2024-01-15T14:09:36;117.47;;;71.07;;
50350;SDS011;36250;48.740;22.174;2024-01-15T14:12:02;112.35;;;67.90;;